createdAt,value
2022-12-13T00:00:19.319Z,6.85
2022-12-13T00:01:17.439Z,6.30
2022-12-13T00:02:14.097Z,5.47
2022-12-13T00:03:10.800Z,5.00
2022-12-13T00:04:08.530Z,5.93
2022-12-13T00:05:05.591Z,4.85
2022-12-13T00:06:05.476Z,5.45
2022-12-13T00:07:02.254Z,5.03
2022-12-13T00:08:00.062Z,7.80
2022-12-13T00:08:57.329Z,5.47
2022-12-13T00:09:53.955Z,6.72
2022-12-13T00:11:00.255Z,7.38
2022-12-13T00:11:56.985Z,8.15
2022-12-13T00:12:53.620Z,9.18
2022-12-13T00:13:50.277Z,10.75
2022-12-13T00:14:46.862Z,8.32
2022-12-13T00:15:43.502Z,8.38
2022-12-13T00:16:40.736Z,9.38
2022-12-13T00:17:37.709Z,8.73
2022-12-13T00:18:34.983Z,8.30
2022-12-13T00:19:31.565Z,7.85
2022-12-13T00:20:28.171Z,8.90
2022-12-13T00:21:30.288Z,7.55
2022-12-13T00:22:26.940Z,8.25
2022-12-13T00:23:24.344Z,8.65
2022-12-13T00:24:21.058Z,7.28
2022-12-13T00:25:19.902Z,7.80
2022-12-13T00:26:19.578Z,8.27
2022-12-13T00:27:16.127Z,7.05
2022-12-13T00:28:12.811Z,6.97
2022-12-13T00:29:11.261Z,5.35
2022-12-13T00:30:08.413Z,5.95
2022-12-13T00:31:43.156Z,7.80
2022-12-13T00:32:21.799Z,10.02
2022-12-13T00:33:18.497Z,7.53
2022-12-13T00:34:15.154Z,10.77
2022-12-13T00:35:11.836Z,9.00
2022-12-13T00:36:08.900Z,9.20
2022-12-13T00:37:05.490Z,9.43
2022-12-13T00:38:02.123Z,7.55
2022-12-13T00:39:01.744Z,9.50
2022-12-13T00:39:58.392Z,8.57
2022-12-13T00:40:54.955Z,7.95
2022-12-13T00:41:51.765Z,10.45
2022-12-13T00:42:49.146Z,8.65
2022-12-13T00:43:46.329Z,7.95
2022-12-13T00:44:42.948Z,8.15
2022-12-13T00:45:39.985Z,9.20
2022-12-13T00:46:36.639Z,9.88
2022-12-13T00:47:33.341Z,8.70
2022-12-13T00:48:30.200Z,8.05
2022-12-13T00:49:26.798Z,7.85
2022-12-13T00:50:23.424Z,10.38
2022-12-13T00:51:21.027Z,8.27
2022-12-13T00:52:17.595Z,8.40
2022-12-13T00:53:14.183Z,8.55
2022-12-13T00:54:11.323Z,8.10
2022-12-13T00:55:08.391Z,8.85
2022-12-13T00:56:09.964Z,10.57
2022-12-13T00:57:06.576Z,7.13
2022-12-13T00:58:03.229Z,8.70
2022-12-13T00:59:00.326Z,8.10
2022-12-13T00:59:57.018Z,8.60
2022-12-13T01:00:53.591Z,8.98
2022-12-13T01:01:50.257Z,7.88
2022-12-13T01:02:47.162Z,7.40
2022-12-13T01:03:44.045Z,8.52
2022-12-13T01:04:40.648Z,7.88
2022-12-13T01:06:13.289Z,7.10
2022-12-13T01:06:55.160Z,8.95
2022-12-13T01:07:51.904Z,9.23
2022-12-13T01:08:49.420Z,9.35
2022-12-13T01:09:46.020Z,7.18
2022-12-13T01:10:47.098Z,6.80
2022-12-13T01:11:44.832Z,7.78
2022-12-13T01:12:41.480Z,6.68
2022-12-13T01:13:39.243Z,8.32
2022-12-13T01:14:37.225Z,6.13
2022-12-13T01:15:33.853Z,6.13
2022-12-13T01:16:30.590Z,6.60
2022-12-13T01:17:27.571Z,5.97
2022-12-13T01:18:24.314Z,5.25
2022-12-13T01:19:22.415Z,5.68
2022-12-13T01:20:19.054Z,5.53
2022-12-13T01:21:18.286Z,5.80
2022-12-13T01:22:15.019Z,6.82
2022-12-13T01:23:11.939Z,5.65
2022-12-13T01:24:08.659Z,5.95
2022-12-13T01:25:05.529Z,6.25
2022-12-13T01:26:04.533Z,8.23
2022-12-13T01:27:01.216Z,5.75
2022-12-13T01:27:57.775Z,5.85
2022-12-13T01:28:54.372Z,5.85
2022-12-13T01:29:51.021Z,6.80
2022-12-13T01:30:56.698Z,6.03
2022-12-13T01:31:54.294Z,7.55
2022-12-13T01:32:51.027Z,7.03
2022-12-13T01:33:48.601Z,7.07
2022-12-13T01:34:45.154Z,6.10
2022-12-13T01:35:41.837Z,7.65
2022-12-13T01:36:43.384Z,6.93
2022-12-13T01:37:39.976Z,8.13
2022-12-13T01:38:37.869Z,6.85
2022-12-13T01:39:38.228Z,5.40
2022-12-13T01:40:38.786Z,7.47
2022-12-13T01:41:36.031Z,6.65
2022-12-13T01:42:32.682Z,6.85
2022-12-13T01:43:49.272Z,9.40
2022-12-13T01:45:04.067Z,7.93
2022-12-13T01:46:00.768Z,6.85
2022-12-13T01:46:57.487Z,8.13
2022-12-13T01:48:02.476Z,8.40
2022-12-13T01:49:04.842Z,7.35
2022-12-13T01:51:03.877Z,6.93
2022-12-13T01:52:05.287Z,7.38
2022-12-13T01:53:05.364Z,8.27
2022-12-13T01:54:05.140Z,6.20
2022-12-13T01:55:05.118Z,8.13
2022-12-13T01:56:06.965Z,7.57
2022-12-13T01:57:06.924Z,6.00
2022-12-13T01:58:05.899Z,7.70
2022-12-13T01:59:02.984Z,7.88
2022-12-13T01:59:59.955Z,8.27
2022-12-13T02:00:59.184Z,7.30
2022-12-13T02:02:00.939Z,8.52
2022-12-13T02:02:59.927Z,7.63
2022-12-13T02:03:56.577Z,7.50
2022-12-13T02:04:58.479Z,7.43
2022-12-13T02:06:19.678Z,9.02
2022-12-13T02:07:23.185Z,7.72
2022-12-13T02:08:21.349Z,10.55
2022-12-13T02:09:18.820Z,8.70
2022-12-13T02:10:15.540Z,8.85
2022-12-13T02:11:13.020Z,11.45
2022-12-13T02:12:11.379Z,8.93
2022-12-13T02:13:08.003Z,8.70
2022-12-13T02:14:05.636Z,9.07
2022-12-13T02:15:07.985Z,10.73
2022-12-13T02:16:28.226Z,9.68
2022-12-13T02:17:44.722Z,8.60
2022-12-13T02:19:10.328Z,9.90
2022-12-13T02:20:25.643Z,9.80
2022-12-13T02:21:48.757Z,9.38
2022-12-13T02:23:11.689Z,9.50
2022-12-13T02:24:32.699Z,7.55
2022-12-13T02:25:35.082Z,6.60
2022-12-13T02:28:30.851Z,6.00
2022-12-13T02:30:00.904Z,8.13
2022-12-13T02:31:07.962Z,8.15
2022-12-13T02:32:28.869Z,8.00
2022-12-13T02:33:50.439Z,9.02
2022-12-13T02:34:50.088Z,8.00
2022-12-13T02:36:12.723Z,7.32
2022-12-13T02:37:25.590Z,6.85
2022-12-13T02:38:55.498Z,7.32
2022-12-13T02:40:05.370Z,6.85
2022-12-13T02:41:24.256Z,8.50
2022-12-13T02:42:49.508Z,8.52
2022-12-13T02:44:22.363Z,7.10
2022-12-13T02:45:36.817Z,8.90
2022-12-13T02:46:39.785Z,7.70
2022-12-13T02:47:41.584Z,6.43
2022-12-13T02:48:40.857Z,6.38
2022-12-13T02:49:42.429Z,8.80
2022-12-13T02:50:40.497Z,7.65
2022-12-13T02:51:39.307Z,8.27
2022-12-13T02:52:36.772Z,9.35
2022-12-13T02:53:34.859Z,9.20
2022-12-13T02:54:31.561Z,7.85
2022-12-13T02:55:28.959Z,8.13
2022-12-13T02:56:25.531Z,7.45
2022-12-13T02:57:30.008Z,9.65
2022-12-13T02:58:31.116Z,6.88
2022-12-13T02:59:35.805Z,6.70
2022-12-13T03:00:59.228Z,6.35
2022-12-13T03:02:14.457Z,6.90
2022-12-13T03:03:30.473Z,6.50
2022-12-13T03:04:36.419Z,6.20
2022-12-13T03:05:51.460Z,6.28
2022-12-13T03:07:00.444Z,7.15
2022-12-13T03:08:38.830Z,7.18
2022-12-13T03:09:50.472Z,7.28
2022-12-13T03:10:55.081Z,6.50
2022-12-13T03:12:32.487Z,7.20
2022-12-13T03:13:42.978Z,7.47
2022-12-13T03:14:46.827Z,8.60
2022-12-13T03:16:14.656Z,7.97
2022-12-13T03:17:21.650Z,7.80
2022-12-13T03:18:22.185Z,9.40
2022-12-13T03:19:19.491Z,6.70
2022-12-13T03:20:24.548Z,7.70
2022-12-13T03:21:21.219Z,8.98
2022-12-13T03:22:17.893Z,7.45
2022-12-13T03:23:16.315Z,7.07
2022-12-13T03:24:13.659Z,7.00
2022-12-13T03:25:10.246Z,7.38
2022-12-13T03:26:12.910Z,7.63
2022-12-13T03:27:09.485Z,7.78
2022-12-13T03:28:06.087Z,6.38
2022-12-13T03:29:02.789Z,6.32
2022-12-13T03:30:00.218Z,7.75
2022-12-13T03:30:56.929Z,6.70
2022-12-13T03:31:54.353Z,6.10
2022-12-13T03:32:50.943Z,7.82
2022-12-13T03:33:48.232Z,8.63
2022-12-13T03:34:47.588Z,8.55
2022-12-13T03:35:46.594Z,8.30
2022-12-13T03:36:43.337Z,9.45
2022-12-13T03:37:39.953Z,7.32
2022-12-13T03:38:38.191Z,7.13
2022-12-13T03:39:35.372Z,6.65
2022-12-13T03:40:34.280Z,7.78
2022-12-13T03:41:34.053Z,10.18
2022-12-13T03:42:30.819Z,10.57
2022-12-13T03:43:28.770Z,10.40
2022-12-13T03:44:25.462Z,9.20
2022-12-13T03:45:28.301Z,8.07
2022-12-13T03:46:25.002Z,8.25
2022-12-13T03:47:21.697Z,8.32
2022-12-13T03:48:22.203Z,9.20
2022-12-13T03:49:19.887Z,8.50
2022-12-13T03:50:25.798Z,9.18
2022-12-13T03:51:24.017Z,7.57
2022-12-13T03:52:20.680Z,8.15
2022-12-13T03:53:22.869Z,8.98
2022-12-13T03:54:29.547Z,7.20
2022-12-13T03:55:26.846Z,7.53
2022-12-13T03:56:23.553Z,9.18
2022-12-13T03:57:20.187Z,11.18
2022-12-13T03:58:16.871Z,8.98
2022-12-13T03:59:13.486Z,7.95
2022-12-13T04:00:10.684Z,8.55
2022-12-13T04:01:10.216Z,7.68
2022-12-13T04:02:06.908Z,8.10
2022-12-13T04:03:03.690Z,7.40
2022-12-13T04:04:00.430Z,5.78
2022-12-13T04:04:57.069Z,6.97
2022-12-13T04:05:57.379Z,6.90
2022-12-13T04:06:53.933Z,6.60
2022-12-13T04:07:50.531Z,6.32
2022-12-13T04:08:47.239Z,7.20
2022-12-13T04:09:47.666Z,6.68
2022-12-13T04:10:44.246Z,7.07
2022-12-13T04:11:59.751Z,6.70
2022-12-13T04:13:15.055Z,6.90
2022-12-13T04:14:12.331Z,8.02
2022-12-13T04:15:19.083Z,8.75
2022-12-13T04:16:15.803Z,7.18
2022-12-13T04:17:12.371Z,7.85
2022-12-13T04:18:09.034Z,8.13
2022-12-13T04:19:05.704Z,7.65
2022-12-13T04:20:02.339Z,7.78
2022-12-13T04:20:58.956Z,6.47
2022-12-13T04:21:55.549Z,7.20
2022-12-13T04:22:52.154Z,6.25
2022-12-13T04:23:48.805Z,6.85
2022-12-13T04:24:45.391Z,8.07
2022-12-13T04:25:42.941Z,7.60
2022-12-13T04:26:40.758Z,7.82
2022-12-13T04:27:38.097Z,5.88
2022-12-13T04:28:34.727Z,7.68
2022-12-13T04:29:34.907Z,6.85
2022-12-13T04:30:32.129Z,8.20
2022-12-13T04:31:28.796Z,8.25
2022-12-13T04:32:26.871Z,8.13
2022-12-13T04:33:24.852Z,8.10
2022-12-13T04:34:21.517Z,7.30
2022-12-13T04:35:18.412Z,8.48
2022-12-13T04:36:32.165Z,8.27
2022-12-13T04:37:30.362Z,8.15
2022-12-13T04:38:27.583Z,7.55
2022-12-13T04:39:24.150Z,8.48
2022-12-13T04:40:21.921Z,8.07
2022-12-13T04:41:19.480Z,8.93
2022-12-13T04:42:16.443Z,8.23
2022-12-13T04:43:13.127Z,7.22
2022-12-13T04:44:27.892Z,9.10
2022-12-13T04:45:26.067Z,7.90
2022-12-13T04:46:22.820Z,7.95
2022-12-13T04:47:19.441Z,8.63
2022-12-13T04:48:31.314Z,8.77
2022-12-13T04:49:30.152Z,5.93
2022-12-13T04:50:26.938Z,8.27
2022-12-13T04:51:23.846Z,8.52
2022-12-13T04:52:22.329Z,8.02
2022-12-13T04:53:19.435Z,8.02
2022-12-13T04:54:24.600Z,8.13
2022-12-13T04:55:21.295Z,8.73
2022-12-13T04:56:18.161Z,8.30
2022-12-13T04:57:14.892Z,7.70
2022-12-13T04:58:11.777Z,8.68
2022-12-13T04:59:09.125Z,9.23
2022-12-13T05:00:07.102Z,7.50
2022-12-13T05:01:08.181Z,8.68
2022-12-13T05:02:06.311Z,8.00
2022-12-13T05:03:03.475Z,7.45
2022-12-13T05:04:03.329Z,8.30
2022-12-13T05:05:00.437Z,8.90
2022-12-13T05:05:57.025Z,7.70
2022-12-13T05:06:53.608Z,8.02
2022-12-13T05:07:50.254Z,7.82
2022-12-13T05:08:46.888Z,7.88
2022-12-13T05:09:43.475Z,8.10
2022-12-13T05:10:40.322Z,8.25
2022-12-13T05:11:36.926Z,8.07
2022-12-13T05:12:42.178Z,7.95
2022-12-13T05:13:39.330Z,8.13
2022-12-13T05:14:35.915Z,8.07
2022-12-13T05:15:33.655Z,6.47
2022-12-13T05:16:30.361Z,6.40
2022-12-13T05:17:27.013Z,6.28
2022-12-13T05:18:23.790Z,6.00
2022-12-13T05:19:20.447Z,7.18
2022-12-13T05:20:17.073Z,26.38
2022-12-13T05:21:13.684Z,27.95
2022-12-13T05:22:19.845Z,9.68
2022-12-13T05:23:23.114Z,8.75
2022-12-13T05:24:19.800Z,9.85
2022-12-13T05:25:16.707Z,13.05
2022-12-13T05:26:13.455Z,8.85
2022-12-13T05:27:24.881Z,9.35
2022-12-13T05:28:27.811Z,7.97
2022-12-13T05:29:25.449Z,7.43
2022-12-13T05:30:22.013Z,7.90
2022-12-13T05:31:23.288Z,15.43
2022-12-13T05:32:20.719Z,14.95
2022-12-13T05:33:17.360Z,10.68
2022-12-13T05:34:14.080Z,10.23
2022-12-13T05:35:10.901Z,12.07
2022-12-13T05:36:07.920Z,10.52
2022-12-13T05:37:04.582Z,9.30
2022-12-13T05:38:01.412Z,11.00
2022-12-13T05:38:58.000Z,8.45
2022-12-13T05:39:54.637Z,9.80
2022-12-13T05:40:51.229Z,8.85
2022-12-13T05:41:48.124Z,11.05
2022-12-13T05:42:44.705Z,14.13
2022-12-13T05:43:43.021Z,17.65
2022-12-13T05:44:40.225Z,9.63
2022-12-13T05:45:37.204Z,9.93
2022-12-13T05:46:39.885Z,10.45
2022-12-13T05:47:38.169Z,14.23
2022-12-13T05:48:34.802Z,13.25
2022-12-13T05:49:32.255Z,10.77
2022-12-13T05:50:29.149Z,9.55
2022-12-13T05:51:25.878Z,8.93
2022-12-13T05:52:31.335Z,10.48
2022-12-13T05:53:30.645Z,8.70
2022-12-13T05:54:27.986Z,8.45
2022-12-13T05:55:24.624Z,9.55
2022-12-13T05:56:22.614Z,9.35
2022-12-13T05:57:19.972Z,9.05
2022-12-13T05:58:16.768Z,9.05
2022-12-13T05:59:20.021Z,9.70
2022-12-13T06:00:30.006Z,8.15
2022-12-13T06:01:27.392Z,8.10
2022-12-13T06:02:24.368Z,8.23
2022-12-13T06:03:21.373Z,8.30
2022-12-13T06:04:22.540Z,8.45
2022-12-13T06:05:20.041Z,8.45
2022-12-13T06:06:18.243Z,9.20
2022-12-13T06:07:14.902Z,8.25
2022-12-13T06:08:24.268Z,8.80
2022-12-13T06:09:22.113Z,7.65
2022-12-13T06:10:21.798Z,7.60
2022-12-13T06:11:32.157Z,8.93
2022-12-13T06:12:31.693Z,7.55
2022-12-13T06:13:32.014Z,7.82
2022-12-13T06:14:29.285Z,8.57
2022-12-13T06:15:26.230Z,8.00
2022-12-13T06:16:31.612Z,8.63
2022-12-13T06:17:36.227Z,8.10
2022-12-13T06:18:35.480Z,8.63
2022-12-13T06:19:32.254Z,9.50
2022-12-13T06:20:28.892Z,10.02
2022-12-13T06:21:25.607Z,10.10
2022-12-13T06:22:22.168Z,7.28
2022-12-13T06:23:18.809Z,10.50
2022-12-13T06:24:17.119Z,9.10
2022-12-13T06:25:30.844Z,10.85
2022-12-13T06:26:28.514Z,7.53
2022-12-13T06:27:25.151Z,9.30
2022-12-13T06:28:21.787Z,15.55
2022-12-13T06:29:24.226Z,12.27
2022-12-13T06:30:22.014Z,12.82
2022-12-13T06:31:18.671Z,11.70
2022-12-13T06:32:15.427Z,10.82
2022-12-13T06:33:13.355Z,15.70
2022-12-13T06:34:14.581Z,11.32
2022-12-13T06:35:28.989Z,11.18
2022-12-13T06:36:26.694Z,12.00
2022-12-13T06:37:23.243Z,10.65
2022-12-13T06:38:31.611Z,11.00
2022-12-13T06:39:32.701Z,11.45
2022-12-13T06:40:30.765Z,14.98
2022-12-13T06:41:31.994Z,13.05
2022-12-13T06:42:28.782Z,12.67
2022-12-13T06:43:25.375Z,12.93
2022-12-13T06:44:22.186Z,13.23
2022-12-13T06:45:19.009Z,13.60
2022-12-13T06:46:16.028Z,15.35
2022-12-13T06:47:12.966Z,14.20
2022-12-13T06:48:28.970Z,15.82
2022-12-13T06:49:25.666Z,14.10
2022-12-13T06:50:29.136Z,14.25
2022-12-13T06:51:33.242Z,12.32
2022-12-13T06:52:30.105Z,11.55
2022-12-13T06:53:26.763Z,9.82
2022-12-13T06:54:23.363Z,11.77
2022-12-13T06:55:23.591Z,10.27
2022-12-13T06:56:20.831Z,11.00
2022-12-13T06:57:17.565Z,13.02
2022-12-13T06:58:14.170Z,14.27
2022-12-13T06:59:10.917Z,14.07
2022-12-13T07:00:08.409Z,15.57
2022-12-13T07:01:14.577Z,18.48
2022-12-13T07:02:15.533Z,18.00
2022-12-13T07:03:22.541Z,18.05
2022-12-13T07:04:29.741Z,19.33
2022-12-13T07:05:27.658Z,18.38
2022-12-13T07:06:25.581Z,20.25
2022-12-13T07:07:22.878Z,19.10
2022-12-13T07:08:22.380Z,20.55
2022-12-13T07:09:19.563Z,19.85
2022-12-13T07:10:22.149Z,18.65
2022-12-13T07:11:25.196Z,17.25
2022-12-13T07:12:22.241Z,20.88
2022-12-13T07:13:18.807Z,19.33
2022-12-13T07:14:15.847Z,18.38
2022-12-13T07:15:12.442Z,18.10
2022-12-13T07:16:10.384Z,14.85
2022-12-13T07:17:07.026Z,14.98
2022-12-13T07:18:04.200Z,16.40
2022-12-13T07:19:02.128Z,15.18
2022-12-13T07:19:58.918Z,16.42
2022-12-13T07:20:57.816Z,16.92
2022-12-13T07:21:54.442Z,19.85
2022-12-13T07:22:59.243Z,21.27
2022-12-13T07:23:56.179Z,20.55
2022-12-13T07:24:52.932Z,16.65
2022-12-13T07:25:55.534Z,13.13
2022-12-13T07:26:52.243Z,9.40
2022-12-13T07:27:48.887Z,7.93
2022-12-13T07:28:50.093Z,8.88
2022-12-13T07:29:49.612Z,7.78
2022-12-13T07:30:46.913Z,7.90
2022-12-13T07:31:43.626Z,8.73
2022-12-13T07:32:41.709Z,8.48
2022-12-13T07:33:38.765Z,8.43
2022-12-13T07:34:35.686Z,9.38
2022-12-13T07:35:36.976Z,8.48
2022-12-13T07:36:34.342Z,9.60
2022-12-13T07:37:31.282Z,7.25
2022-12-13T07:38:28.479Z,7.95
2022-12-13T07:39:26.341Z,7.00
2022-12-13T07:40:22.973Z,8.75
2022-12-13T07:41:23.732Z,7.18
2022-12-13T07:42:20.839Z,7.10
2022-12-13T07:43:17.847Z,7.10
2022-12-13T07:44:14.631Z,6.30
2022-12-13T07:45:11.341Z,7.30
2022-12-13T07:46:08.381Z,6.82
2022-12-13T07:47:05.090Z,7.82
2022-12-13T07:48:05.855Z,10.43
2022-12-13T07:49:03.431Z,16.88
2022-12-13T07:50:00.108Z,21.25
2022-12-13T07:51:03.997Z,15.85
2022-12-13T07:52:00.661Z,20.88
2022-12-13T07:52:57.342Z,18.02
2022-12-13T07:53:54.015Z,18.67
2022-12-13T07:54:50.743Z,17.25
2022-12-13T07:55:47.500Z,17.48
2022-12-13T07:56:44.411Z,17.23
2022-12-13T07:57:42.614Z,19.17
2022-12-13T07:58:39.496Z,20.30
2022-12-13T07:59:36.122Z,22.30
2022-12-13T08:00:33.440Z,21.10
2022-12-13T08:01:34.639Z,19.40
2022-12-13T08:02:31.704Z,19.38
2022-12-13T08:03:28.807Z,20.92
2022-12-13T08:04:25.627Z,20.50
2022-12-13T08:05:26.681Z,22.08
2022-12-13T08:06:23.836Z,24.00
2022-12-13T08:07:20.494Z,23.27
2022-12-13T08:08:20.042Z,22.02
2022-12-13T08:09:16.641Z,20.33
2022-12-13T08:10:13.273Z,22.60
2022-12-13T08:11:15.412Z,23.15
2022-12-13T08:12:12.026Z,20.35
2022-12-13T08:13:08.724Z,19.27
2022-12-13T08:14:06.344Z,19.98
2022-12-13T08:15:03.191Z,21.60
2022-12-13T08:16:26.338Z,23.25
2022-12-13T08:17:23.345Z,21.10
2022-12-13T08:18:19.957Z,23.02
2022-12-13T08:19:16.588Z,22.15
2022-12-13T08:20:13.548Z,21.33
2022-12-13T08:21:52.687Z,20.55
2022-12-13T08:22:36.344Z,22.25
2022-12-13T08:23:34.267Z,21.48
2022-12-13T08:24:31.321Z,20.90
2022-12-13T08:25:28.077Z,21.92
2022-12-13T08:26:24.972Z,21.23
2022-12-13T08:27:21.709Z,22.10
2022-12-13T08:28:18.540Z,21.73
2022-12-13T08:29:23.052Z,19.15
2022-12-13T08:30:32.151Z,19.20
2022-12-13T08:31:33.787Z,23.98
2022-12-13T08:32:30.775Z,23.08
2022-12-13T08:33:27.542Z,20.38
2022-12-13T08:34:24.143Z,21.92
2022-12-13T08:35:20.790Z,22.30
2022-12-13T08:36:18.495Z,19.00
2022-12-13T08:37:16.700Z,22.70
2022-12-13T08:38:13.848Z,23.85
2022-12-13T08:39:19.569Z,23.45
2022-12-13T08:40:16.406Z,21.23
2022-12-13T08:41:13.940Z,24.58
2022-12-13T08:42:18.798Z,23.02
2022-12-13T08:43:15.798Z,22.60
2022-12-13T08:44:12.393Z,23.58
2022-12-13T08:45:09.580Z,22.52
2022-12-13T08:46:06.761Z,22.75
2022-12-13T08:47:03.420Z,20.65
2022-12-13T08:48:01.187Z,21.83
2022-12-13T08:48:57.887Z,23.00
2022-12-13T08:50:02.354Z,20.63
2022-12-13T08:51:24.590Z,22.50
2022-12-13T08:52:23.710Z,19.85
2022-12-13T08:53:21.055Z,19.20
2022-12-13T08:54:31.711Z,18.00
2022-12-13T08:55:31.774Z,18.25
2022-12-13T08:56:30.133Z,18.83
2022-12-13T08:57:26.765Z,20.42
2022-12-13T08:58:23.451Z,19.55
2022-12-13T08:59:20.148Z,19.88
2022-12-13T09:00:19.386Z,20.55
2022-12-13T09:01:16.217Z,20.02
2022-12-13T09:02:17.276Z,20.50
2022-12-13T09:03:13.920Z,19.45
2022-12-13T09:04:10.586Z,20.70
2022-12-13T09:05:09.273Z,18.92
2022-12-13T09:06:13.814Z,17.27
2022-12-13T09:07:10.387Z,19.40
2022-12-13T09:08:23.708Z,19.88
2022-12-13T09:09:21.871Z,17.77
2022-12-13T09:10:27.512Z,18.40
2022-12-13T09:11:35.003Z,17.70
2022-12-13T09:12:35.023Z,18.65
2022-12-13T09:13:43.563Z,18.13
2022-12-13T09:14:45.393Z,18.40
2022-12-13T09:15:46.307Z,19.70
2022-12-13T09:16:50.447Z,16.98
2022-12-13T09:17:52.492Z,18.45
2022-12-13T09:18:54.720Z,17.83
2022-12-13T09:19:57.962Z,19.45
2022-12-13T09:20:55.440Z,17.83
2022-12-13T09:22:07.871Z,17.50
2022-12-13T09:23:14.314Z,16.02
2022-12-13T09:24:24.170Z,16.08
2022-12-13T09:25:24.018Z,16.65
2022-12-13T09:26:25.602Z,16.58
2022-12-13T09:27:28.232Z,17.58
2022-12-13T09:28:25.522Z,15.90
2022-12-13T09:29:22.182Z,15.68
2022-12-13T09:30:19.283Z,16.13
2022-12-13T09:31:19.426Z,15.55
2022-12-13T09:32:16.259Z,17.35
2022-12-13T09:33:17.642Z,17.38
2022-12-13T09:34:26.859Z,19.60
2022-12-13T09:35:23.607Z,18.75
2022-12-13T09:36:21.504Z,17.48
2022-12-13T09:37:22.748Z,18.67
2022-12-13T09:38:20.409Z,19.20
2022-12-13T09:39:17.199Z,20.80
2022-12-13T09:40:26.061Z,18.52
2022-12-13T09:41:42.522Z,19.73
2022-12-13T09:42:44.995Z,19.70
2022-12-13T09:45:02.185Z,21.92
2022-12-13T09:46:13.304Z,21.65
2022-12-13T09:47:26.191Z,22.15
2022-12-13T09:48:23.545Z,22.42
2022-12-13T09:49:38.469Z,22.83
2022-12-13T09:50:38.766Z,21.67
2022-12-13T09:52:44.479Z,23.45
2022-12-13T09:53:51.532Z,22.63
2022-12-13T09:54:50.136Z,23.25
2022-12-13T09:55:50.880Z,21.33
2022-12-13T09:56:51.401Z,22.40
2022-12-13T09:57:48.760Z,21.40
2022-12-13T09:58:49.279Z,23.83
2022-12-13T09:59:47.596Z,22.00
2022-12-13T10:00:47.485Z,21.80
2022-12-13T10:01:45.487Z,21.70
2022-12-13T10:02:48.380Z,22.33
2022-12-13T10:03:49.206Z,21.80
2022-12-13T10:04:45.899Z,21.73
2022-12-13T10:05:46.053Z,20.55
2022-12-13T10:06:42.788Z,21.08
2022-12-13T10:07:40.257Z,20.63
2022-12-13T10:08:50.380Z,22.45
2022-12-13T10:10:01.603Z,20.27
2022-12-13T10:10:58.377Z,20.63
2022-12-13T10:11:55.846Z,20.13
2022-12-13T10:13:08.716Z,20.05
2022-12-13T10:14:30.020Z,20.48
2022-12-13T10:15:28.580Z,19.73
2022-12-13T10:16:25.179Z,22.08
2022-12-13T10:17:25.745Z,20.80
2022-12-13T10:18:33.824Z,21.75
2022-12-13T10:19:40.541Z,20.75
2022-12-13T10:20:37.720Z,20.85
2022-12-13T10:21:42.932Z,20.40
2022-12-13T10:22:39.533Z,20.88
2022-12-13T10:23:59.811Z,20.45
2022-12-13T10:25:03.868Z,21.38
2022-12-13T10:26:03.297Z,21.77
2022-12-13T10:27:32.146Z,20.38
2022-12-13T10:28:33.466Z,18.58
2022-12-13T10:29:30.081Z,20.02
2022-12-13T10:30:29.161Z,19.67
2022-12-13T10:31:26.204Z,18.52
2022-12-13T10:32:23.093Z,18.08
2022-12-13T10:33:28.987Z,17.42
2022-12-13T10:34:29.915Z,20.35
2022-12-13T10:35:27.929Z,19.65
2022-12-13T10:36:43.789Z,20.20
2022-12-13T10:37:40.452Z,19.10
2022-12-13T10:38:45.564Z,19.80
2022-12-13T10:39:43.634Z,19.63
2022-12-13T10:40:46.744Z,19.95
2022-12-13T10:41:44.470Z,20.63
2022-12-13T10:42:41.095Z,20.45
2022-12-13T10:43:38.076Z,20.23
2022-12-13T10:44:35.488Z,20.25
2022-12-13T10:45:32.161Z,19.67
2022-12-13T10:46:31.268Z,19.90
2022-12-13T10:47:36.461Z,20.55
2022-12-13T10:48:39.910Z,21.00
2022-12-13T10:49:39.420Z,21.13
2022-12-13T10:50:37.099Z,22.05
2022-12-13T10:51:39.964Z,19.85
2022-12-13T10:52:43.162Z,20.15
2022-12-13T10:53:47.390Z,19.67
2022-12-13T10:54:48.523Z,19.38
2022-12-13T10:55:45.545Z,18.92
2022-12-13T10:56:51.018Z,20.40
2022-12-13T10:57:56.935Z,20.13
2022-12-13T10:59:16.987Z,23.45
2022-12-13T11:00:33.682Z,20.52
2022-12-13T11:01:30.521Z,23.25
2022-12-13T11:02:38.360Z,22.83
2022-12-13T11:03:35.019Z,21.15
2022-12-13T11:04:35.304Z,21.98
2022-12-13T11:05:35.619Z,25.38
2022-12-13T11:06:46.746Z,23.65
2022-12-13T11:07:43.323Z,25.50
2022-12-13T11:08:40.146Z,27.13
2022-12-13T11:09:38.936Z,22.98
2022-12-13T11:10:36.517Z,23.90
2022-12-13T11:11:34.948Z,22.52
2022-12-13T11:12:31.729Z,24.17
2022-12-13T11:13:33.516Z,24.10
2022-12-13T11:14:43.221Z,23.35
2022-12-13T11:15:40.353Z,24.67
2022-12-13T11:16:41.485Z,22.13
2022-12-13T11:17:48.116Z,23.95
2022-12-13T11:18:53.018Z,24.52
2022-12-13T11:19:54.012Z,26.38
2022-12-13T11:21:00.456Z,25.92
2022-12-13T11:21:57.319Z,23.70
2022-12-13T11:23:19.675Z,25.02
2022-12-13T11:24:38.420Z,25.60
2022-12-13T11:25:43.709Z,23.73
2022-12-13T11:26:42.932Z,24.77
2022-12-13T11:27:46.174Z,25.42
2022-12-13T11:29:09.224Z,25.25
2022-12-13T11:30:27.359Z,23.80
2022-12-13T11:31:48.851Z,21.45
2022-12-13T11:32:59.268Z,22.67
2022-12-13T11:34:09.174Z,20.73
2022-12-13T11:35:16.358Z,23.77
2022-12-13T11:36:48.578Z,23.98
2022-12-13T11:37:49.330Z,23.45
2022-12-13T11:38:58.188Z,23.88
2022-12-13T11:40:01.679Z,24.42
2022-12-13T11:41:38.633Z,23.45
2022-12-13T11:42:54.161Z,21.92
2022-12-13T11:44:14.055Z,22.05
2022-12-13T11:45:11.716Z,22.70
2022-12-13T11:46:35.136Z,20.95
2022-12-13T11:48:00.645Z,21.20
2022-12-13T11:49:03.079Z,19.20
2022-12-13T11:51:00.103Z,19.00
2022-12-13T11:52:21.897Z,21.17
2022-12-13T11:53:50.675Z,21.55
2022-12-13T11:54:57.687Z,22.35
2022-12-13T11:56:20.267Z,19.75
2022-12-13T11:57:31.658Z,20.23
2022-12-13T11:59:02.913Z,21.55
2022-12-13T12:00:35.425Z,22.15
2022-12-13T12:01:47.771Z,20.55
2022-12-13T12:02:56.815Z,21.08
2022-12-13T12:03:56.865Z,18.75
2022-12-13T12:05:00.496Z,18.77
2022-12-13T12:06:05.938Z,20.73
2022-12-13T12:07:30.683Z,19.38
2022-12-13T12:08:52.851Z,17.88
2022-12-13T12:09:56.239Z,16.88
2022-12-13T12:11:19.400Z,18.63
2022-12-13T12:12:37.248Z,15.93
2022-12-13T12:13:51.621Z,18.08
2022-12-13T12:14:52.660Z,18.75
2022-12-13T12:16:04.236Z,17.60
2022-12-13T12:17:01.130Z,18.20
2022-12-13T12:17:57.951Z,19.42
2022-12-13T12:18:54.676Z,15.52
2022-12-13T12:19:58.919Z,16.90
2022-12-13T12:21:20.638Z,18.02
2022-12-13T12:22:48.054Z,18.08
2022-12-13T12:23:52.552Z,17.75
2022-12-13T12:25:16.814Z,18.48
2022-12-13T12:26:18.556Z,18.17
2022-12-13T12:27:39.927Z,19.38
2022-12-13T12:29:12.283Z,19.63
2022-12-13T12:30:23.195Z,19.98
2022-12-13T12:31:50.923Z,21.60
2022-12-13T12:33:00.826Z,19.35
2022-12-13T12:34:00.228Z,20.58
2022-12-13T12:35:16.545Z,20.63
2022-12-13T12:36:32.019Z,21.95
2022-12-13T12:37:49.293Z,23.67
2022-12-13T12:39:14.397Z,22.05
2022-12-13T12:40:52.182Z,23.30
2022-12-13T12:42:07.981Z,21.88
2022-12-13T12:43:22.111Z,18.17
2022-12-13T12:44:37.097Z,19.13
2022-12-13T12:45:57.192Z,20.70
2022-12-13T12:47:18.050Z,20.33
2022-12-13T12:49:02.167Z,19.20
2022-12-13T12:50:18.782Z,20.25
2022-12-13T12:51:33.846Z,19.25
2022-12-13T12:52:55.201Z,18.13
2022-12-13T12:54:19.051Z,18.13
2022-12-13T12:55:33.688Z,18.92
2022-12-13T12:56:45.603Z,16.38
2022-12-13T12:58:05.076Z,17.13
2022-12-13T12:59:27.343Z,17.67
2022-12-13T13:00:25.128Z,16.58
2022-12-13T13:02:03.196Z,16.92
2022-12-13T13:03:14.515Z,17.42
2022-12-13T13:04:22.295Z,18.38
2022-12-13T13:05:45.084Z,18.10
2022-12-13T13:06:47.782Z,16.83
2022-12-13T13:07:52.813Z,16.55
2022-12-13T13:08:54.985Z,16.17
2022-12-13T13:09:54.948Z,18.02
2022-12-13T13:10:54.017Z,17.92
2022-12-13T13:12:29.377Z,18.20
2022-12-13T13:13:49.873Z,16.80
2022-12-13T13:14:46.549Z,20.50
2022-12-13T13:15:52.437Z,19.13
2022-12-13T13:16:49.205Z,19.48
2022-12-13T13:17:46.935Z,19.38
2022-12-13T13:18:52.020Z,20.38
2022-12-13T13:19:50.555Z,18.88
2022-12-13T13:21:25.891Z,19.60
2022-12-13T13:22:44.368Z,16.75
2022-12-13T13:23:43.186Z,18.52
2022-12-13T13:24:39.900Z,18.13
2022-12-13T13:26:00.378Z,18.40
2022-12-13T13:26:58.661Z,17.80
2022-12-13T13:28:22.306Z,17.40
2022-12-13T13:30:26.189Z,16.88
2022-12-13T13:31:22.886Z,17.80
2022-12-13T13:32:28.282Z,16.48
2022-12-13T13:33:44.939Z,16.27
2022-12-13T13:34:47.190Z,16.85
2022-12-13T13:35:43.782Z,16.30
2022-12-13T13:36:43.355Z,19.52
2022-12-13T13:37:49.105Z,16.52
2022-12-13T13:38:49.717Z,16.70
2022-12-13T13:40:03.880Z,17.33
2022-12-13T13:41:32.389Z,17.05
2022-12-13T13:42:33.092Z,18.33